Time;durP1;ratioP1;P1;durP2;ratioP2;P2;SDS_P1;SDS_P2;PMS_P1;PMS_P2;Temp;Humidity;BMP_temperature;BMP_pressure;BME280_temperature;BME280_humidity;BME280_pressure;Samples;Min_cycle;Max_cycle;Signal;HPM_P1;HPM_P2
2021/03/30 02:45:36;;;;;;;12.75;4.30;;;15.60;46.70;;;;;;5663579;24;21028;-69
2021/03/30 02:48:04;;;;;;;11.75;4.15;;;15.80;45.90;;;;;;4760812;30;20109;-71
2021/03/30 02:50:31;;;;;;;12.38;4.70;;;15.80;45.80;;;;;;4759721;30;20044;-72
2021/03/30 02:52:57;;;;;;;7.97;3.92;;;15.90;45.70;;;;;;4763205;30;20036;-72
2021/03/30 02:55:24;;;;;;;10.70;4.32;;;15.90;45.40;;;;;;4762995;30;20044;-71
2021/03/30 02:57:50;;;;;;;14.77;4.95;;;16.00;45.10;;;;;;4751400;30;20067;-71
2021/03/30 03:00:17;;;;;;;9.10;4.10;;;16.00;44.80;;;;;;4760126;30;20028;-71
2021/03/30 03:02:44;;;;;;;8.50;4.47;;;16.00;44.70;;;;;;4752030;30;20211;-71
2021/03/30 03:05:11;;;;;;;8.77;4.38;;;16.10;45.10;;;;;;4760553;30;20028;-71
2021/03/30 03:07:38;;;;;;;11.10;4.38;;;16.00;44.90;;;;;;4762754;30;20059;-72
2021/03/30 03:10:07;;;;;;;;;;;16.10;44.50;;;;;;4763269;30;20196;-71
2021/03/30 03:12:37;;;;;;;11.68;4.20;;;16.10;44.00;;;;;;4762572;30;19946;-72
2021/03/30 03:15:04;;;;;;;15.98;5.82;;;16.20;44.30;;;;;;4761967;30;20322;-71
2021/03/30 03:17:31;;;;;;;8.40;4.60;;;16.10;44.30;;;;;;4758219;30;20028;-71
2021/03/30 03:19:58;;;;;;;11.05;3.75;;;16.10;45.00;;;;;;4759233;30;20055;-72
2021/03/30 03:22:24;;;;;;;10.60;5.20;;;16.10;43.90;;;;;;4762610;30;20443;-71
2021/03/30 03:24:51;;;;;;;13.82;4.80;;;16.10;44.20;;;;;;4761621;30;20032;-71
2021/03/30 03:27:21;;;;;;;10.48;5.00;;;16.10;44.50;;;;;;4762326;30;20040;-71
2021/03/30 03:29:47;;;;;;;13.35;4.50;;;16.00;44.10;;;;;;4762349;30;20373;-71
2021/03/30 03:32:13;;;;;;;9.33;4.67;;;16.00;44.10;;;;;;4762262;30;20032;-72
2021/03/30 03:34:41;;;;;;;10.88;4.60;;;16.10;43.90;;;;;;4761034;30;20078;-71
2021/03/30 03:37:07;;;;;;;16.00;5.00;;;16.00;44.10;;;;;;4761424;30;20079;-72
2021/03/30 03:39:33;;;;;;;18.48;5.07;;;16.00;44.00;;;;;;4762265;30;20037;-71
2021/03/30 03:41:59;;;;;;;13.77;4.67;;;16.10;43.90;;;;;;4761196;30;20102;-71
2021/03/30 03:44:28;;;;;;;10.50;4.38;;;16.10;43.90;;;;;;4762238;30;20274;-71
2021/03/30 03:46:54;;;;;;;12.93;4.47;;;16.10;44.00;;;;;;4759598;30;20058;-71
2021/03/30 03:49:22;;;;;;;13.07;5.53;;;16.10;44.10;;;;;;4762041;30;20056;-71
2021/03/30 03:52:00;;;;;;;17.38;4.75;;;16.10;44.30;;;;;;4762282;30;20039;-71
2021/03/30 03:54:28;;;;;;;12.18;4.97;;;16.10;44.60;;;;;;4761122;30;20032;-71
2021/03/30 03:57:00;;;;;;;9.52;4.72;;;16.10;44.60;;;;;;4775940;30;20103;-71
2021/03/30 03:59:32;;;;;;;9.15;4.05;;;16.00;44.10;;;;;;4757847;30;20040;-71
2021/03/30 04:02:15;;;;;;;8.60;4.00;;;16.00;43.90;;;;;;4759975;30;20383;-71
2021/03/30 04:05:16;;;;;;;10.15;4.82;;;16.00;45.60;;;;;;4752087;30;20232;-73
2021/03/30 04:07:48;;;;;;;14.55;4.38;;;15.90;46.00;;;;;;4757767;30;20223;-71
2021/03/30 04:10:20;;;;;;;12.75;4.60;;;15.80;45.60;;;;;;4759434;30;20377;-71
2021/03/30 04:12:47;;;;;;;14.35;5.22;;;15.70;45.30;;;;;;4760145;30;20039;-71
2021/03/30 04:15:14;;;;;;;10.05;4.80;;;15.60;45.00;;;;;;4745457;30;20028;-71
2021/03/30 04:17:41;;;;;;;;;;;15.60;44.80;;;;;;4764133;30;20328;-71
2021/03/30 04:20:15;;;;;;;13.10;4.95;;;15.70;44.70;;;;;;4744749;30;19910;-71
2021/03/30 04:22:50;;;;;;;11.75;4.63;;;15.70;45.00;;;;;;4760092;30;20189;-71
2021/03/30 04:25:16;;;;;;;8.23;4.82;;;15.70;45.30;;;;;;4742187;30;20047;-71
2021/03/30 04:27:42;;;;;;;13.05;4.38;;;15.70;45.70;;;;;;4744933;30;20036;-71
2021/03/30 04:30:08;;;;;;;11.77;5.28;;;15.70;45.60;;;;;;4759960;30;20044;-71
2021/03/30 04:32:34;;;;;;;12.93;4.70;;;15.70;46.20;;;;;;4744759;30;20124;-71
2021/03/30 04:34:59;;;;;;;14.98;4.85;;;15.70;45.70;;;;;;4759819;30;20351;-72
2021/03/30 04:37:25;;;;;;;13.68;4.97;;;15.70;45.10;;;;;;4759789;30;20040;-71
2021/03/30 04:39:51;;;;;;;14.43;4.72;;;15.70;45.00;;;;;;4760001;30;20040;-72
2021/03/30 04:42:17;;;;;;;11.73;4.82;;;15.70;44.90;;;;;;4729721;30;20032;-71
2021/03/30 04:44:42;;;;;;;11.98;4.22;;;15.80;44.60;;;;;;4759618;30;20095;-71
2021/03/30 04:47:08;;;;;;;8.82;3.97;;;15.80;44.50;;;;;;4761413;30;20335;-71
2021/03/30 04:49:34;;;;;;;11.73;4.43;;;15.80;45.20;;;;;;4761533;30;20081;-72
2021/03/30 04:52:00;;;;;;;11.95;4.47;;;15.80;44.80;;;;;;4761537;30;20319;-72
2021/03/30 04:54:25;;;;;;;8.60;4.22;;;15.80;44.30;;;;;;4760644;30;20064;-71
2021/03/30 04:56:51;;;;;;;12.95;4.38;;;15.80;44.00;;;;;;4761590;30;20024;-71
2021/03/30 04:59:17;;;;;;;7.03;3.90;;;15.90;43.80;;;;;;4761332;30;20036;-71
2021/03/30 05:01:43;;;;;;;13.45;4.03;;;15.90;43.90;;;;;;4760380;30;20197;-71
2021/03/30 05:04:08;;;;;;;10.65;4.22;;;15.90;43.80;;;;;;4761255;30;20086;-71
2021/03/30 05:06:34;;;;;;;12.48;5.25;;;16.00;44.10;;;;;;4760180;30;20035;-71
2021/03/30 05:09:00;;;;;;;11.63;5.32;;;16.00;43.80;;;;;;4761194;30;20085;-71
2021/03/30 05:11:26;;;;;;;11.00;4.68;;;16.00;44.00;;;;;;4758413;30;20025;-71
2021/03/30 05:13:51;;;;;;;12.52;4.60;;;16.00;44.00;;;;;;4754673;30;20044;-71
2021/03/30 05:16:17;;;;;;;12.43;4.68;;;16.00;44.20;;;;;;4745215;30;20027;-71
2021/03/30 05:18:44;;;;;;;12.75;4.45;;;16.10;44.30;;;;;;4759441;30;20103;-71
2021/03/30 05:21:10;;;;;;;8.63;4.72;;;16.10;44.30;;;;;;4766066;30;20394;-71
2021/03/30 05:23:36;;;;;;;17.30;5.85;;;16.10;44.10;;;;;;4763153;30;20071;-72
2021/03/30 05:26:02;;;;;;;10.82;4.43;;;16.00;44.10;;;;;;4764397;30;20028;-71
2021/03/30 05:28:28;;;;;;;12.85;4.05;;;16.00;43.80;;;;;;4762970;30;20036;-71
2021/03/30 05:30:54;;;;;;;8.23;4.07;;;16.00;44.20;;;;;;4762948;30;20081;-71
2021/03/30 05:33:20;;;;;;;13.55;4.57;;;16.00;44.90;;;;;;4764089;30;20092;-71
2021/03/30 05:35:46;;;;;;;9.98;4.88;;;15.90;45.60;;;;;;4763066;30;20378;-71
2021/03/30 05:38:13;;;;;;;8.73;4.47;;;15.80;44.90;;;;;;4762000;30;20025;-72
2021/03/30 05:40:39;;;;;;;12.20;5.17;;;15.70;45.10;;;;;;4769741;30;20044;-72
2021/03/30 05:43:11;;;;;;;10.20;4.60;;;15.70;45.30;;;;;;4761327;30;20024;-71
2021/03/30 05:45:37;;;;;;;15.27;4.75;;;15.70;45.30;;;;;;4763531;30;20315;-71
2021/03/30 05:48:08;;;;;;;7.75;4.13;;;15.60;45.90;;;;;;4763360;30;20051;-71
2021/03/30 05:50:34;;;;;;;14.00;5.70;;;15.60;46.80;;;;;;4762655;30;20032;-71
2021/03/30 05:53:07;;;;;;;12.63;6.25;;;15.50;47.10;;;;;;4762561;30;20016;-72
2021/03/30 05:55:36;;;;;;;12.50;5.70;;;15.50;46.50;;;;;;4763633;30;20303;-71
2021/03/30 05:58:03;;;;;;;13.15;4.97;;;15.40;46.00;;;;;;4758015;30;20287;-72
2021/03/30 06:00:33;;;;;;;12.55;5.00;;;15.40;46.90;;;;;;4777065;30;20031;-72
2021/03/30 06:03:08;;;;;;;9.50;4.63;;;15.40;47.80;;;;;;4762217;30;20099;-72
2021/03/30 06:05:34;;;;;;;11.68;4.82;;;15.40;48.30;;;;;;4763202;30;20111;-72
2021/03/30 06:08:03;;;;;;;12.73;5.13;;;15.30;48.60;;;;;;4762959;30;20219;-71
2021/03/30 06:10:31;;;;;;;15.02;5.68;;;15.30;48.00;;;;;;4762967;30;20047;-72
2021/03/30 06:13:01;;;;;;;12.35;4.72;;;15.30;47.10;;;;;;4761836;30;20104;-72
2021/03/30 06:15:32;;;;;;;19.30;5.22;;;15.30;47.00;;;;;;4762821;30;20026;-72
2021/03/30 06:18:00;;;;;;;11.13;5.68;;;15.30;47.30;;;;;;4760641;30;20074;-71
2021/03/30 06:20:28;;;;;;;9.82;5.28;;;15.30;48.10;;;;;;4762406;30;20043;-71
2021/03/30 06:23:00;;;;;;;19.95;5.43;;;15.30;48.40;;;;;;4760654;30;20085;-72
2021/03/30 06:25:49;;;;;;;15.00;5.93;;;15.30;47.70;;;;;;4764814;30;20095;-72
2021/03/30 06:28:20;;;;;;;14.13;5.20;;;15.30;47.30;;;;;;4761884;30;20068;-72
2021/03/30 06:30:58;;;;;;;16.00;5.38;;;15.30;47.50;;;;;;4751737;30;20100;-73
2021/03/30 06:33:24;;;;;;;16.50;5.40;;;15.30;47.70;;;;;;4762300;30;20035;-71
2021/03/30 06:35:51;;;;;;;19.48;4.60;;;15.30;47.50;;;;;;4762746;30;20027;-72
2021/03/30 06:38:17;;;;;;;16.35;5.15;;;15.40;47.00;;;;;;4763004;30;20024;-72
2021/03/30 06:40:45;;;;;;;16.98;5.57;;;15.40;46.80;;;;;;4763029;30;20020;-71
2021/03/30 06:46:14;;;;;;;14.20;5.40;;;15.60;45.30;;;;;;4743875;30;20469;-71
2021/03/30 06:48:40;;;;;;;10.57;4.53;;;15.70;45.80;;;;;;4757505;30;20047;-71
2021/03/30 06:51:19;;;;;;;12.00;4.82;;;15.80;45.10;;;;;;4753339;30;20086;-71
2021/03/30 06:53:46;;;;;;;12.70;5.35;;;15.90;45.00;;;;;;4756944;30;20031;-71
2021/03/30 06:56:12;;;;;;;14.07;4.68;;;16.10;44.80;;;;;;4755933;30;20032;-72
2021/03/30 06:58:57;;;;;;;12.40;4.50;;;16.20;44.30;;;;;;4744708;30;20067;-71
2021/03/30 07:01:28;;;;;;;9.60;4.10;;;16.30;44.50;;;;;;4758763;30;20072;-71
2021/03/30 07:03:55;;;;;;;13.57;5.38;;;16.30;44.00;;;;;;4755649;30;20044;-71
2021/03/30 07:06:23;;;;;;;10.63;4.15;;;16.50;43.80;;;;;;4739773;30;20044;-70
2021/03/30 07:08:50;;;;;;;17.48;4.88;;;16.60;43.50;;;;;;4731070;30;20063;-71
2021/03/30 07:11:17;;;;;;;13.82;4.80;;;16.70;43.20;;;;;;4758090;30;20046;-71
2021/03/30 07:13:43;;;;;;;11.88;4.22;;;16.80;43.10;;;;;;4740753;30;20044;-71
2021/03/30 07:16:11;;;;;;;12.32;4.07;;;16.90;42.60;;;;;;4742366;30;20120;-71
2021/03/30 07:18:43;;;;;;;10.18;4.40;;;16.90;42.20;;;;;;4740295;30;20056;-72
2021/03/30 07:21:18;;;;;;;14.10;3.80;;;17.00;42.30;;;;;;4740536;30;20043;-71
2021/03/30 07:24:06;;;;;;;11.15;4.05;;;17.10;41.80;;;;;;4736137;30;20391;-71
2021/03/30 07:26:50;;;;;;;13.05;4.13;;;17.20;41.70;;;;;;4760911;30;20040;-71
2021/03/30 07:29:22;;;;;;;13.20;4.15;;;17.20;41.80;;;;;;4759268;30;20062;-71
2021/03/30 07:32:02;;;;;;;17.85;4.20;;;17.30;41.20;;;;;;4756883;30;20086;-71
2021/03/30 07:34:51;;;;;;;13.00;4.10;;;17.40;40.80;;;;;;4755589;30;20032;-71
2021/03/30 07:37:24;;;;;;;13.60;3.92;;;17.50;40.30;;;;;;4772541;30;20040;-71
2021/03/30 07:39:55;;;;;;;17.45;4.57;;;17.50;40.20;;;;;;4762370;30;20031;-71
2021/03/30 07:42:21;;;;;;;8.95;3.90;;;17.60;40.70;;;;;;4762436;30;20312;-71
2021/03/30 07:44:49;;;;;;;18.17;4.25;;;17.60;40.10;;;;;;4762166;30;20028;-71
2021/03/30 07:47:16;;;;;;;12.07;4.32;;;17.80;40.00;;;;;;4760756;30;20063;-71
2021/03/30 07:49:48;;;;;;;10.82;5.35;;;17.80;40.00;;;;;;4760960;30;20028;-71
2021/03/30 07:52:24;;;;;;;15.43;4.57;;;17.90;40.00;;;;;;4762175;30;20036;-71
2021/03/30 07:55:13;;;;;;;11.65;3.78;;;18.00;40.20;;;;;;4752233;30;20028;-71
2021/03/30 07:57:55;;;;;;;13.23;3.67;;;18.10;39.90;;;;;;4757530;30;20063;-71
2021/03/30 08:00:33;;;;;;;9.02;4.32;;;18.20;39.80;;;;;;4760499;30;20063;-71
2021/03/30 08:03:05;;;;;;;11.13;4.00;;;18.30;39.10;;;;;;4757919;30;20037;-71
2021/03/30 08:05:31;;;;;;;12.30;4.78;;;18.30;39.60;;;;;;4760759;30;20292;-71
2021/03/30 08:07:57;;;;;;;15.03;4.77;;;18.40;39.90;;;;;;4757668;30;20035;-71
2021/03/30 08:10:27;;;;;;;11.47;4.03;;;18.40;38.70;;;;;;4760038;30;20032;-71
2021/03/30 08:13:25;;;;;;;10.75;4.13;;;18.50;39.20;;;;;;4745156;30;20050;-71
2021/03/30 08:16:05;;;;;;;12.73;4.47;;;18.50;39.00;;;;;;4757830;30;20039;-71
2021/03/30 08:18:39;;;;;;;18.08;4.65;;;18.50;39.40;;;;;;4760037;30;20031;-71
2021/03/30 08:21:11;;;;;;;15.45;4.93;;;18.70;38.90;;;;;;4756936;30;20220;-71
2021/03/30 08:23:52;;;;;;;14.88;5.20;;;18.70;39.00;;;;;;4759084;30;20105;-71
2021/03/30 08:26:33;;;;;;;8.95;4.53;;;18.80;38.80;;;;;;4759130;30;20054;-68
2021/03/30 08:29:08;;;;;;;17.25;5.30;;;18.90;39.50;;;;;;4757652;30;20051;-68
2021/03/30 08:31:39;;;;;;;20.50;4.72;;;18.90;39.30;;;;;;4761365;30;20024;-70
2021/03/30 08:34:27;;;;;;;17.17;5.13;;;19.00;39.00;;;;;;4756108;30;20032;-69
2021/03/30 08:36:57;;;;;;;11.13;5.10;;;19.10;39.60;;;;;;4760565;30;20219;-69
2021/03/30 08:39:22;;;;;;;18.65;5.63;;;19.10;38.60;;;;;;4760003;30;20095;-70
2021/03/30 08:41:56;;;;;;;19.23;5.53;;;19.20;38.30;;;;;;4761434;30;20038;-72
2021/03/30 08:44:31;;;;;;;11.80;4.57;;;19.30;38.10;;;;;;4761686;30;20024;-70
2021/03/30 08:46:58;;;;;;;13.77;4.97;;;19.40;38.60;;;;;;4756330;30;20052;-70
2021/03/30 08:49:32;;;;;;;18.15;5.13;;;19.40;38.10;;;;;;4761299;30;20024;-70
2021/03/30 08:51:59;;;;;;;24.60;5.57;;;19.50;37.90;;;;;;4775328;30;20039;-72
2021/03/30 08:54:34;;;;;;;10.02;4.88;;;19.60;38.30;;;;;;4761376;30;20311;-70
2021/03/30 08:57:03;;;;;;;30.23;7.30;;;19.80;38.30;;;;;;4761272;30;20095;-71
2021/03/30 08:59:30;;;;;;;20.80;6.00;;;19.90;37.50;;;;;;4758142;30;20067;-71
2021/03/30 09:02:09;;;;;;;13.37;4.97;;;19.90;37.30;;;;;;4759011;30;20036;-76
2021/03/30 09:04:39;;;;;;;11.23;5.50;;;20.10;37.70;;;;;;4762640;30;20040;-73
2021/03/30 09:07:06;;;;;;;17.48;5.53;;;20.20;37.00;;;;;;4761340;30;20036;-74
2021/03/30 09:09:36;;;;;;;10.07;4.65;;;20.30;36.50;;;;;;4757813;30;20028;-74
2021/03/30 09:12:18;;;;;;;14.40;5.40;;;20.40;36.30;;;;;;4762967;30;20095;-74
2021/03/30 09:14:57;;;;;;;20.58;6.93;;;20.40;35.20;;;;;;4757530;30;20300;-73
2021/03/30 09:17:23;;;;;;;12.32;5.88;;;20.50;36.60;;;;;;4763888;30;20181;-74
2021/03/30 09:19:50;;;;;;;11.93;5.30;;;20.60;36.60;;;;;;4757238;30;20082;-73
2021/03/30 09:27:44;;;;;;;13.52;5.90;;;21.50;34.70;;;;;;4761683;30;20061;-72
2021/03/30 09:30:18;;;;;;;13.85;6.25;;;21.90;34.40;;;;;;4745540;30;20335;-73
2021/03/30 09:32:45;;;;;;;23.67;9.00;;;22.60;32.80;;;;;;4762034;30;20037;-72
2021/03/30 09:35:14;;;;;;;;;;;23.40;31.20;;;;;;4744657;30;20070;-73
2021/03/30 09:37:44;;;;;;;15.82;7.28;;;24.20;30.80;;;;;;4747212;30;19910;-72
2021/03/30 09:40:13;;;;;;;14.77;6.30;;;25.20;30.00;;;;;;4744704;30;20036;-72
2021/03/30 09:42:40;;;;;;;12.50;6.38;;;25.60;29.10;;;;;;4730350;30;20055;-72
2021/03/30 09:45:09;;;;;;;16.33;6.68;;;26.30;28.80;;;;;;4761364;30;20181;-72
2021/03/30 09:47:35;;;;;;;13.68;7.05;;;26.80;28.70;;;;;;4746067;30;20094;-72
2021/03/30 09:50:02;;;;;;;15.10;6.95;;;27.00;27.80;;;;;;4762040;30;20099;-72
2021/03/30 09:52:31;;;;;;;15.50;7.50;;;27.50;27.80;;;;;;4762164;30;20039;-72
2021/03/30 09:54:57;;;;;;;13.15;7.15;;;27.80;27.10;;;;;;4762034;30;20040;-72
2021/03/30 09:57:28;;;;;;;12.55;6.60;;;28.40;27.10;;;;;;4746727;30;20078;-72
2021/03/30 09:59:55;;;;;;;16.20;7.50;;;28.50;26.60;;;;;;4760267;30;20595;-72
2021/03/30 10:02:23;;;;;;;15.98;7.13;;;28.50;26.90;;;;;;4762444;30;20315;-72
2021/03/30 10:04:54;;;;;;;16.50;6.72;;;28.20;26.20;;;;;;4763890;30;20032;-72
2021/03/30 10:07:20;;;;;;;10.30;6.97;;;28.40;26.00;;;;;;4763697;30;20106;-72
2021/03/30 10:09:56;;;;;;;;;;;28.60;25.90;;;;;;4746566;30;20036;-72
2021/03/30 10:12:32;;;;;;;13.05;6.60;;;29.10;25.80;;;;;;4762537;30;19910;-72
2021/03/30 10:14:59;;;;;;;11.80;6.15;;;29.40;25.40;;;;;;4763738;30;20028;-72
2021/03/30 10:17:27;;;;;;;17.80;6.38;;;29.50;25.90;;;;;;4762922;30;20032;-72
2021/03/30 10:19:54;;;;;;;12.43;6.55;;;29.40;25.10;;;;;;4763517;30;20032;-73
2021/03/30 10:22:31;;;;;;;10.95;6.45;;;29.90;25.40;;;;;;4763474;30;20234;-72
2021/03/30 10:25:30;;;;;;;8.45;5.90;;;30.30;25.20;;;;;;4760534;30;20103;-72
2021/03/30 10:27:58;;;;;;;11.30;5.67;;;30.70;23.90;;;;;;4761550;30;20104;-73
2021/03/30 10:30:34;;;;;;;15.23;6.63;;;30.60;24.40;;;;;;4746664;30;20096;-72
2021/03/30 10:33:03;;;;;;;14.30;5.77;;;30.40;23.60;;;;;;4755739;30;20032;-72
2021/03/30 10:35:30;;;;;;;16.17;7.20;;;30.50;24.30;;;;;;4761141;30;20192;-73
2021/03/30 10:37:57;;;;;;;10.90;6.55;;;30.20;24.80;;;;;;4760962;30;20052;-74
2021/03/30 10:40:30;;;;;;;;;;;30.70;24.20;;;;;;4747069;30;20201;-73
2021/03/30 10:42:56;;;;;;;7.90;5.75;;;31.20;23.70;;;;;;4760738;30;19921;-72
2021/03/30 10:45:29;;;;;;;11.00;5.87;;;31.50;23.80;;;;;;4746329;30;20227;-72
2021/03/30 10:48:00;;;;;;;12.20;6.22;;;31.80;23.80;;;;;;4745354;30;20290;-72
2021/03/30 10:50:26;;;;;;;16.42;6.97;;;32.40;23.40;;;;;;4760985;30;20071;-72
2021/03/30 10:52:52;;;;;;;13.57;6.23;;;31.90;23.20;;;;;;4760938;30;20028;-71
2021/03/30 10:55:18;;;;;;;14.27;6.30;;;31.60;23.40;;;;;;4746030;30;20286;-71
2021/03/30 10:57:46;;;;;;;;;;;31.70;23.20;;;;;;4746463;30;20129;-71
2021/03/30 11:00:14;;;;;;;11.65;6.35;;;32.10;23.10;;;;;;4746415;30;19949;-72
2021/03/30 11:02:40;;;;;;;12.40;6.80;;;32.90;23.50;;;;;;4758859;30;20330;-72
2021/03/30 11:05:07;;;;;;;12.10;6.13;;;32.70;22.50;;;;;;4762992;30;20037;-71
2021/03/30 11:07:33;;;;;;;17.63;5.82;;;32.60;22.60;;;;;;4761671;30;20036;-71
2021/03/30 11:10:00;;;;;;;13.52;5.47;;;33.20;22.70;;;;;;4762593;30;20051;-71
2021/03/30 11:12:26;;;;;;;14.48;5.88;;;33.10;22.40;;;;;;4756735;30;20059;-71
2021/03/30 11:14:51;;;;;;;19.03;5.77;;;32.90;22.10;;;;;;4762272;30;20032;-71
2021/03/30 11:17:17;;;;;;;12.43;5.80;;;32.90;22.20;;;;;;4762295;30;20270;-71
2021/03/30 11:19:43;;;;;;;12.47;6.17;;;33.10;22.40;;;;;;4760558;30;20043;-71
2021/03/30 11:22:10;;;;;;;27.37;5.27;;;32.60;21.60;;;;;;4762647;30;20058;-71
2021/03/30 11:24:39;;;;;;;12.38;5.82;;;32.50;23.00;;;;;;4761924;30;20076;-71
2021/03/30 11:27:05;;;;;;;10.77;4.95;;;32.80;21.80;;;;;;4761934;30;20074;-71
2021/03/30 11:37:12;;;;;;;14.35;5.95;;;32.90;21.80;;;;;;4762265;30;20048;-71
2021/03/30 11:39:38;;;;;;;15.30;5.35;;;32.70;21.40;;;;;;4761149;30;20100;-71
2021/03/30 11:42:05;;;;;;;11.23;4.90;;;33.30;21.80;;;;;;4762151;30;20319;-71
2021/03/30 11:44:31;;;;;;;18.02;5.63;;;33.70;21.30;;;;;;4758679;30;20059;-72
2021/03/30 11:47:00;;;;;;;27.08;6.00;;;33.20;21.50;;;;;;4761702;30;20056;-73
2021/03/30 11:49:27;;;;;;;14.75;4.72;;;32.70;21.90;;;;;;4756908;30;20040;-72
2021/03/30 11:51:53;;;;;;;10.82;4.82;;;32.60;22.20;;;;;;4760946;30;20032;-71
2021/03/30 11:54:19;;;;;;;18.00;6.22;;;32.80;21.80;;;;;;4761938;30;20095;-71
2021/03/30 11:56:45;;;;;;;12.20;4.30;;;33.00;21.70;;;;;;4761422;30;20027;-71
2021/03/30 11:59:11;;;;;;;15.70;6.18;;;33.10;21.70;;;;;;4761906;30;20040;-71
2021/03/30 12:01:37;;;;;;;15.70;6.97;;;33.50;22.00;;;;;;4762073;30;20028;-72
2021/03/30 12:04:02;;;;;;;10.40;5.70;;;33.70;21.90;;;;;;4757594;30;20090;-71
2021/03/30 12:06:28;;;;;;;15.73;6.00;;;33.70;22.00;;;;;;4760534;30;20515;-71
2021/03/30 12:08:54;;;;;;;14.73;6.13;;;33.60;21.80;;;;;;4761042;30;20040;-71
2021/03/30 12:11:19;;;;;;;11.23;5.80;;;33.80;21.10;;;;;;4761871;30;20024;-71
2021/03/30 12:13:45;;;;;;;11.33;5.63;;;33.40;21.40;;;;;;4758610;30;20098;-72
2021/03/30 12:16:11;;;;;;;7.27;4.63;;;33.60;22.00;;;;;;4753612;30;20035;-72
2021/03/30 12:18:37;;;;;;;6.97;4.67;;;33.60;21.40;;;;;;4759111;30;20028;-71
2021/03/30 12:21:02;;;;;;;9.80;5.37;;;33.50;21.00;;;;;;4761394;30;20039;-71
2021/03/30 12:23:28;;;;;;;10.15;5.30;;;33.60;21.30;;;;;;4761383;30;20020;-71
2021/03/30 12:25:54;;;;;;;11.67;4.70;;;33.60;21.00;;;;;;4775162;30;20028;-71
2021/03/30 12:28:21;;;;;;;9.02;4.32;;;33.10;21.20;;;;;;4775462;30;20280;-71
2021/03/30 12:30:47;;;;;;;;;;;33.10;21.10;;;;;;4776812;30;20095;-72
2021/03/30 12:33:13;;;;;;;11.60;4.22;;;32.80;21.60;;;;;;4765267;30;19933;-71
2021/03/30 12:35:38;;;;;;;7.85;4.35;;;32.80;21.10;;;;;;4765302;30;20028;-71
2021/03/30 12:38:04;;;;;;;10.73;4.37;;;32.50;21.40;;;;;;4761592;30;20037;-71
2021/03/30 12:40:30;;;;;;;7.10;3.38;;;31.80;21.40;;;;;;4765117;30;20338;-71
2021/03/30 12:42:56;;;;;;;11.77;3.97;;;31.20;22.30;;;;;;4764235;30;20040;-71
2021/03/30 12:45:22;;;;;;;9.80;3.60;;;30.80;22.20;;;;;;4773063;30;20103;-71
2021/03/30 12:47:47;;;;;;;10.33;3.90;;;30.10;22.10;;;;;;4778661;30;20075;-71
2021/03/30 12:50:14;;;;;;;16.60;3.70;;;29.50;22.90;;;;;;4765138;30;20044;-71
2021/03/30 12:52:40;;;;;;;10.23;3.78;;;29.50;23.40;;;;;;4765153;30;20032;-71
2021/03/30 12:55:08;;;;;;;11.57;3.70;;;29.30;23.60;;;;;;4760283;30;20036;-71
2021/03/30 12:57:34;;;;;;;8.75;3.30;;;29.20;23.10;;;;;;4772920;30;20035;-71
2021/03/30 13:00:02;;;;;;;6.82;3.38;;;29.00;23.50;;;;;;4754053;30;20047;-71
2021/03/30 13:02:28;;;;;;;14.80;3.65;;;28.30;22.80;;;;;;4763822;30;20443;-71
2021/03/30 13:04:54;;;;;;;5.23;3.07;;;28.20;24.00;;;;;;4764467;30;20048;-71
2021/03/30 13:07:20;;;;;;;7.33;2.50;;;28.10;22.90;;;;;;4762913;30;20020;-71
2021/03/30 13:09:46;;;;;;;9.05;3.30;;;28.20;23.40;;;;;;4761755;30;20217;-71
2021/03/30 13:12:12;;;;;;;16.60;5.68;;;28.20;23.70;;;;;;4764489;30;20157;-71
2021/03/30 13:14:38;;;;;;;11.57;3.92;;;28.10;24.10;;;;;;4764500;30;20028;-71
2021/03/30 13:17:04;;;;;;;11.65;3.33;;;28.20;23.70;;;;;;4764251;30;20044;-71
2021/03/30 13:19:30;;;;;;;19.55;5.28;;;28.00;23.30;;;;;;4763378;30;20032;-71
2021/03/30 13:21:56;;;;;;;34.00;13.45;;;27.90;24.40;;;;;;4758771;30;20066;-70
2021/03/30 13:24:22;;;;;;;29.70;9.27;;;27.50;24.50;;;;;;4745800;30;20308;-71
2021/03/30 13:26:48;;;;;;;7.18;3.33;;;27.40;25.00;;;;;;4758740;30;20029;-71
2021/03/30 13:29:13;;;;;;;10.05;2.33;;;27.20;25.20;;;;;;4762210;30;20044;-70
2021/03/30 13:31:39;;;;;;;8.45;2.35;;;27.10;24.00;;;;;;4761613;30;20246;-71
2021/03/30 13:34:05;;;;;;;15.85;3.42;;;27.10;24.10;;;;;;4764369;30;20153;-71
2021/03/30 13:36:31;;;;;;;18.58;3.60;;;27.00;24.10;;;;;;4761329;30;20259;-71
2021/03/30 13:38:57;;;;;;;10.25;2.85;;;27.00;23.60;;;;;;4763895;30;20032;-71
2021/03/30 13:41:25;;;;;;;5.97;2.70;;;26.90;23.80;;;;;;4759773;30;20031;-71
2021/03/30 13:43:50;;;;;;;11.00;2.50;;;26.80;23.90;;;;;;4763820;30;20029;-72
2021/03/30 13:46:16;;;;;;;21.77;4.25;;;26.80;23.70;;;;;;4763992;30;20024;-71
2021/03/30 13:48:42;;;;;;;5.05;2.30;;;26.80;24.00;;;;;;4748223;30;20056;-72
2021/03/30 13:51:08;;;;;;;5.53;2.25;;;26.80;23.70;;;;;;4760206;30;20040;-72
2021/03/30 13:53:33;;;;;;;6.90;2.92;;;26.80;24.80;;;;;;4762556;30;20036;-72
2021/03/30 13:55:59;;;;;;;6.00;2.72;;;26.70;23.90;;;;;;4764141;30;20044;-71
2021/03/30 13:58:25;;;;;;;7.93;2.80;;;26.60;23.60;;;;;;4763979;30;20039;-72
2021/03/30 14:00:50;;;;;;;19.20;3.10;;;26.70;23.70;;;;;;4763825;30;20183;-72
2021/03/30 14:03:16;;;;;;;10.23;3.33;;;26.70;23.80;;;;;;4759947;30;20032;-72
2021/03/30 14:05:42;;;;;;;8.07;3.33;;;26.80;23.40;;;;;;4745496;30;20028;-72
2021/03/30 14:08:08;;;;;;;6.88;2.63;;;26.90;23.60;;;;;;4775275;30;20028;-72
2021/03/30 14:10:33;;;;;;;20.13;3.63;;;27.00;23.30;;;;;;4763953;30;20124;-72
2021/03/30 14:15:45;;;;;;;22.40;3.42;;;27.10;23.50;;;;;;4763450;30;20035;-72
2021/03/30 14:20:47;;;;;;;11.18;3.10;;;27.20;23.90;;;;;;4762169;30;20071;-72
2021/03/30 14:23:38;;;;;;;12.75;4.15;;;27.00;23.50;;;;;;4759358;30;20039;-73
2021/03/30 14:26:14;;;;;;;7.63;3.25;;;26.80;23.20;;;;;;4758627;30;20090;-72
2021/03/30 14:28:40;;;;;;;10.17;3.57;;;26.80;23.60;;;;;;4763208;30;20035;-72
2021/03/30 14:31:06;;;;;;;10.77;3.17;;;26.50;23.40;;;;;;4762664;30;20082;-73
2021/03/30 14:33:31;;;;;;;11.15;3.50;;;26.60;23.60;;;;;;4763087;30;20039;-73
2021/03/30 14:35:57;;;;;;;13.13;3.85;;;26.60;24.10;;;;;;4761808;30;20051;-72
2021/03/30 14:38:23;;;;;;;14.88;3.50;;;26.50;24.00;;;;;;4761338;30;20025;-72
2021/03/30 14:40:50;;;;;;;9.07;3.00;;;26.50;24.20;;;;;;4763492;30;20043;-72
2021/03/30 14:43:19;;;;;;;9.40;3.60;;;26.60;24.90;;;;;;4763278;30;20036;-73
2021/03/30 14:54:02;;;;;;;9.98;5.05;;;26.60;24.40;;;;;;4759935;30;20031;-72
2021/03/30 14:56:33;;;;;;;11.30;4.00;;;26.50;23.80;;;;;;4776517;30;20043;-73
2021/03/30 15:04:02;;;;;;;10.13;4.13;;;26.20;23.90;;;;;;4762450;30;20028;-73
2021/03/30 15:06:27;;;;;;;14.27;4.65;;;26.20;24.30;;;;;;4761522;30;20028;-73
2021/03/30 15:08:53;;;;;;;8.63;3.38;;;26.20;23.90;;;;;;4762682;30;20032;-73
2021/03/30 15:11:19;;;;;;;28.58;4.25;;;26.20;24.40;;;;;;4762518;30;20216;-74
2021/03/30 15:13:45;;;;;;;6.75;3.05;;;26.10;24.10;;;;;;4761042;30;20037;-72
2021/03/30 15:16:10;;;;;;;8.52;3.13;;;25.90;24.30;;;;;;4761078;30;20071;-73
2021/03/30 15:18:36;;;;;;;9.52;3.25;;;25.80;24.70;;;;;;4760841;30;20368;-73
2021/03/30 15:21:02;;;;;;;6.15;3.47;;;25.70;24.70;;;;;;4762402;30;20020;-73
2021/03/30 15:23:27;;;;;;;9.00;3.03;;;25.70;25.00;;;;;;4762562;30;20028;-73
2021/03/30 15:25:55;;;;;;;22.08;4.35;;;25.70;25.00;;;;;;4776371;30;20224;-76
2021/03/30 15:28:23;;;;;;;9.82;3.47;;;25.70;24.70;;;;;;4775874;30;20120;-73
2021/03/30 15:30:49;;;;;;;8.55;2.92;;;25.70;24.70;;;;;;4758077;30;20105;-72
2021/03/30 15:33:15;;;;;;;6.85;3.30;;;25.60;24.60;;;;;;4762339;30;20099;-72
2021/03/30 15:35:42;;;;;;;7.25;3.15;;;25.60;24.60;;;;;;4762108;30;20032;-72
2021/03/30 15:38:10;;;;;;;14.82;3.40;;;25.50;24.90;;;;;;4775791;30;20026;-72
2021/03/30 15:40:38;;;;;;;10.35;3.00;;;25.50;24.60;;;;;;4756738;30;20262;-73
2021/03/30 15:43:09;;;;;;;8.77;3.22;;;25.50;25.00;;;;;;4758221;30;20028;-72
2021/03/30 15:48:06;;;;;;;9.73;3.40;;;25.40;25.00;;;;;;4761507;30;20196;-72
2021/03/30 15:50:35;;;;;;;9.25;4.15;;;25.30;24.90;;;;;;4758447;30;20325;-72
2021/03/30 15:53:02;;;;;;;16.73;4.22;;;25.20;25.10;;;;;;4745982;30;20027;-72
2021/03/30 15:55:29;;;;;;;11.60;4.28;;;25.20;25.20;;;;;;4762139;30;20036;-72
2021/03/30 15:57:54;;;;;;;10.77;3.60;;;25.10;25.30;;;;;;4761742;30;20027;-73
2021/03/30 16:00:22;;;;;;;8.98;3.47;;;25.00;25.20;;;;;;4756323;30;20040;-72
2021/03/30 16:02:49;;;;;;;12.77;3.95;;;24.90;25.10;;;;;;4766977;30;20032;-75
2021/03/30 16:05:16;;;;;;;;;;;24.90;25.40;;;;;;4756597;30;20257;-72
2021/03/30 16:07:42;;;;;;;;;;;24.80;27.80;;;;;;4761838;30;19953;-73
2021/03/30 16:10:09;;;;;;;7.93;3.87;;;24.70;25.70;;;;;;4760347;30;20243;-72